createdAt,value
2019-03-06T00:01:35.727Z,6.37
2019-03-06T00:04:05.186Z,5.20
2019-03-06T00:06:34.532Z,5.43
2019-03-06T00:09:05.882Z,4.07
2019-03-06T00:11:35.206Z,4.00
2019-03-06T00:14:04.543Z,4.07
2019-03-06T00:16:33.942Z,3.80
2019-03-06T00:19:03.367Z,4.13
2019-03-06T00:21:32.716Z,6.20
2019-03-06T00:24:02.112Z,4.03
2019-03-06T00:26:31.451Z,5.03
2019-03-06T00:29:02.438Z,6.57
2019-03-06T00:31:31.824Z,6.57
2019-03-06T00:34:01.140Z,5.17
2019-03-06T00:36:31.811Z,4.47
2019-03-06T00:39:01.221Z,5.10
2019-03-06T00:41:35.981Z,6.93
2019-03-06T00:44:05.441Z,5.73
2019-03-06T00:46:34.770Z,6.03
2019-03-06T00:49:04.328Z,5.57
2019-03-06T00:51:33.680Z,5.67
2019-03-06T00:54:03.046Z,5.63
2019-03-06T00:56:32.455Z,5.80
2019-03-06T00:59:01.885Z,5.90
2019-03-06T01:01:31.223Z,6.63
2019-03-06T01:04:00.545Z,6.10
2019-03-06T01:06:29.884Z,6.13
2019-03-06T01:08:59.251Z,7.00
2019-03-06T01:11:28.822Z,7.33
2019-03-06T01:13:58.165Z,7.30
2019-03-06T01:16:27.517Z,6.83
2019-03-06T01:18:57.045Z,8.37
2019-03-06T01:21:26.392Z,8.17
2019-03-06T01:23:55.736Z,8.90
2019-03-06T01:26:25.103Z,9.93
2019-03-06T01:28:54.427Z,7.67
2019-03-06T01:31:24.002Z,7.90
2019-03-06T01:34:12.326Z,8.77
2019-03-06T01:37:03.615Z,9.07
2019-03-06T01:39:51.919Z,10.10
2019-03-06T01:42:30.181Z,7.37
2019-03-06T01:45:02.523Z,7.20
2019-03-06T01:47:31.910Z,7.47
2019-03-06T01:50:01.240Z,7.60
2019-03-06T01:52:30.595Z,7.63
2019-03-06T01:55:00.360Z,7.80
2019-03-06T01:57:29.743Z,6.73
2019-03-06T01:59:59.080Z,7.67
2019-03-06T02:02:28.414Z,6.77
2019-03-06T02:04:57.767Z,6.40
2019-03-06T02:07:27.411Z,8.20
2019-03-06T02:09:56.986Z,7.67
2019-03-06T02:12:26.532Z,7.77
2019-03-06T02:14:55.960Z,6.70
2019-03-06T02:17:25.271Z,7.47
2019-03-06T02:19:54.627Z,7.70
2019-03-06T02:22:23.986Z,7.20
2019-03-06T02:24:53.338Z,6.73
2019-03-06T02:27:22.683Z,8.57
2019-03-06T02:29:52.031Z,7.73
2019-03-06T02:32:21.410Z,7.30
2019-03-06T02:34:50.787Z,7.50
2019-03-06T02:37:20.164Z,8.30
2019-03-06T02:39:49.492Z,7.33
2019-03-06T02:42:18.857Z,7.07
2019-03-06T02:44:48.223Z,7.63
2019-03-06T02:47:17.602Z,7.63
2019-03-06T02:49:46.930Z,9.10
2019-03-06T02:52:16.269Z,6.57
2019-03-06T02:54:45.622Z,9.27
2019-03-06T02:57:15.012Z,9.53
2019-03-06T02:59:58.853Z,10.93
2019-03-06T03:02:42.334Z,9.60
2019-03-06T03:05:31.509Z,12.27
2019-03-06T03:08:00.935Z,14.70
2019-03-06T03:10:30.302Z,15.60
2019-03-06T03:13:00.134Z,13.53
2019-03-06T03:15:29.625Z,15.30
2019-03-06T03:17:59.032Z,16.00
2019-03-06T03:20:28.360Z,13.37
2019-03-06T03:22:57.740Z,14.03
2019-03-06T03:25:27.369Z,16.73
2019-03-06T03:27:56.721Z,13.63
2019-03-06T03:30:26.121Z,12.37
2019-03-06T03:32:55.511Z,13.07
2019-03-06T03:35:24.847Z,11.87
2019-03-06T03:37:54.237Z,10.60
2019-03-06T03:40:23.712Z,11.63
2019-03-06T03:42:53.350Z,10.23
2019-03-06T03:45:22.720Z,11.83
2019-03-06T03:47:52.077Z,11.37
2019-03-06T03:50:21.477Z,14.57
2019-03-06T03:52:50.862Z,17.03
2019-03-06T03:55:20.313Z,14.90
2019-03-06T03:57:49.647Z,13.60
2019-03-06T04:00:19.018Z,20.73
2019-03-06T04:02:48.505Z,23.27
2019-03-06T04:05:17.860Z,30.60
2019-03-06T04:07:47.214Z,46.43
2019-03-06T04:10:16.804Z,35.33
2019-03-06T04:12:46.198Z,44.63
2019-03-06T04:15:15.694Z,45.40
2019-03-06T04:17:45.061Z,43.17
2019-03-06T04:20:14.400Z,38.23
2019-03-06T04:22:43.776Z,38.97
2019-03-06T04:25:14.108Z,36.13
2019-03-06T04:27:43.457Z,37.47
2019-03-06T04:30:13.099Z,32.37
2019-03-06T04:32:42.478Z,33.27
2019-03-06T04:35:11.983Z,31.90
2019-03-06T04:37:41.361Z,33.57
2019-03-06T04:40:10.949Z,32.80
2019-03-06T04:42:40.426Z,30.10
2019-03-06T04:45:10.144Z,33.47
2019-03-06T04:47:41.850Z,41.57
2019-03-06T04:50:11.235Z,39.07
2019-03-06T04:52:40.570Z,37.63
2019-03-06T04:55:10.117Z,33.17
2019-03-06T04:57:39.454Z,35.57
2019-03-06T05:00:10.265Z,28.20
2019-03-06T05:02:39.635Z,32.33
2019-03-06T05:05:09.664Z,33.73
2019-03-06T05:07:39.013Z,28.13
2019-03-06T05:10:09.092Z,33.63
2019-03-06T05:12:38.470Z,29.13
2019-03-06T05:15:08.706Z,34.73
2019-03-06T05:18:00.289Z,33.23
2019-03-06T05:20:30.078Z,32.20
2019-03-06T05:22:59.445Z,31.17
2019-03-06T05:25:29.073Z,26.23
2019-03-06T05:27:58.464Z,30.60
2019-03-06T05:30:28.521Z,31.20
2019-03-06T05:32:59.003Z,29.93
2019-03-06T05:35:38.845Z,37.10
2019-03-06T05:38:17.599Z,35.37
2019-03-06T05:40:47.096Z,38.67
2019-03-06T05:43:16.495Z,40.57
2019-03-06T05:45:46.267Z,48.53
2019-03-06T05:48:15.690Z,42.20
2019-03-06T05:50:45.063Z,35.90
2019-03-06T05:53:14.518Z,44.67
2019-03-06T05:55:43.991Z,46.67
2019-03-06T05:58:13.565Z,45.93
2019-03-06T06:00:43.049Z,48.60
2019-03-06T06:03:15.010Z,48.03
2019-03-06T06:05:44.394Z,47.40
2019-03-06T06:08:13.737Z,46.07
2019-03-06T06:10:43.171Z,40.60
2019-03-06T06:13:12.581Z,41.47
2019-03-06T06:15:41.946Z,42.63
2019-03-06T06:18:11.295Z,41.50
2019-03-06T06:20:40.679Z,41.30
2019-03-06T06:23:31.768Z,39.47
2019-03-06T06:26:01.272Z,35.90
2019-03-06T06:28:30.626Z,32.57
2019-03-06T06:30:59.947Z,26.33
2019-03-06T06:33:29.318Z,23.53
2019-03-06T06:35:58.724Z,19.47
2019-03-06T06:38:28.137Z,18.47
2019-03-06T06:40:57.590Z,20.20
2019-03-06T06:43:26.976Z,15.60
2019-03-06T06:45:56.359Z,16.20
2019-03-06T06:48:26.805Z,13.10
2019-03-06T06:51:26.311Z,14.73
2019-03-06T06:54:13.049Z,12.77
2019-03-06T06:57:26.227Z,13.30
2019-03-06T07:00:21.489Z,15.17
2019-03-06T07:03:48.937Z,13.83
2019-03-06T07:06:40.085Z,13.90
2019-03-06T07:09:28.308Z,14.87
2019-03-06T07:12:28.913Z,16.57
2019-03-06T07:15:20.227Z,24.87
2019-03-06T07:18:04.782Z,27.30
2019-03-06T07:20:52.587Z,29.37
2019-03-06T07:23:38.689Z,33.00
2019-03-06T07:26:39.202Z,29.00
2019-03-06T07:29:21.313Z,31.10
2019-03-06T07:32:15.529Z,28.00
2019-03-06T07:35:39.519Z,29.23
2019-03-06T07:38:09.094Z,44.43
2019-03-06T07:40:56.718Z,29.13
2019-03-06T07:43:44.285Z,26.30
2019-03-06T07:46:36.268Z,25.53
2019-03-06T07:49:23.472Z,29.70
2019-03-06T07:52:17.698Z,30.03
2019-03-06T07:55:11.849Z,25.47
2019-03-06T07:58:16.746Z,23.47
2019-03-06T08:00:46.212Z,26.03
2019-03-06T08:03:43.571Z,21.50
2019-03-06T08:06:12.971Z,20.47
2019-03-06T08:08:42.716Z,24.93
2019-03-06T08:11:20.673Z,20.53
2019-03-06T08:13:58.748Z,20.63
2019-03-06T08:16:38.689Z,17.60
2019-03-06T08:19:18.156Z,16.07
2019-03-06T08:22:21.727Z,17.83
2019-03-06T08:25:03.453Z,14.87
2019-03-06T08:27:32.924Z,16.10
2019-03-06T08:30:02.565Z,14.57
2019-03-06T08:32:33.396Z,14.10
2019-03-06T08:35:02.801Z,18.50
2019-03-06T08:37:38.143Z,20.33
2019-03-06T08:40:08.015Z,16.53
2019-03-06T08:42:37.367Z,14.63
2019-03-06T08:45:07.929Z,18.97
2019-03-06T08:47:58.844Z,14.77
2019-03-06T08:50:47.140Z,19.63
2019-03-06T08:53:27.357Z,19.17
2019-03-06T08:56:09.942Z,19.23
2019-03-06T08:58:56.931Z,16.27
2019-03-06T09:01:59.710Z,18.50
2019-03-06T09:04:35.843Z,21.57
2019-03-06T09:07:36.757Z,19.67
2019-03-06T09:10:14.800Z,20.83
2019-03-06T09:12:48.830Z,19.00
2019-03-06T09:15:45.073Z,16.67
2019-03-06T09:18:30.296Z,15.93
2019-03-06T09:21:15.998Z,22.30
2019-03-06T09:24:25.879Z,23.60
2019-03-06T09:27:38.486Z,20.47
2019-03-06T09:30:35.813Z,17.20
2019-03-06T09:33:30.425Z,20.67
2019-03-06T09:36:30.775Z,19.73
2019-03-06T09:39:34.231Z,20.03
2019-03-06T09:42:21.244Z,26.80
2019-03-06T09:45:06.065Z,21.77
2019-03-06T09:47:41.212Z,24.90
2019-03-06T09:50:29.961Z,17.17
2019-03-06T09:53:17.073Z,18.23
2019-03-06T09:56:01.140Z,22.27
2019-03-06T09:58:49.632Z,19.87
2019-03-06T10:01:38.233Z,25.00
2019-03-06T10:04:32.566Z,17.33
2019-03-06T10:07:23.647Z,17.30
2019-03-06T10:10:10.740Z,35.47
2019-03-06T10:13:08.473Z,34.83
2019-03-06T10:15:59.921Z,16.60
2019-03-06T10:18:55.026Z,20.77
2019-03-06T10:21:25.736Z,28.93
2019-03-06T10:23:55.240Z,28.47
2019-03-06T10:26:24.779Z,30.57
2019-03-06T10:28:54.175Z,17.85
2019-03-06T10:31:23.958Z,27.80
2019-03-06T10:33:53.327Z,20.82
2019-03-06T10:36:22.709Z,24.67
2019-03-06T10:38:52.102Z,23.38
2019-03-06T10:41:21.728Z,16.62
2019-03-06T10:43:51.139Z,6.85
2019-03-06T10:46:20.554Z,13.75
2019-03-06T10:48:49.904Z,14.60
2019-03-06T10:51:19.481Z,8.98
2019-03-06T10:53:48.807Z,5.55
2019-03-06T10:56:18.349Z,6.83
2019-03-06T10:58:47.816Z,6.17
2019-03-06T11:01:17.841Z,7.12
2019-03-06T11:04:06.130Z,8.05
2019-03-06T11:06:35.797Z,7.75
2019-03-06T11:09:09.046Z,8.60
2019-03-06T11:11:38.528Z,4.78
2019-03-06T11:14:09.437Z,8.83
2019-03-06T11:16:38.946Z,8.00
2019-03-06T11:19:08.785Z,10.48
2019-03-06T11:21:38.343Z,5.87
2019-03-06T11:24:08.170Z,6.37
2019-03-06T11:26:38.637Z,8.78
2019-03-06T11:29:09.535Z,4.15
2019-03-06T11:31:39.521Z,11.90
2019-03-06T11:34:09.721Z,6.25
2019-03-06T11:36:39.380Z,8.73
2019-03-06T11:39:11.786Z,3.55
2019-03-06T11:41:41.313Z,4.87
2019-03-06T11:44:10.851Z,12.80
2019-03-06T11:46:40.218Z,9.58
2019-03-06T11:49:09.613Z,6.20
2019-03-06T11:51:39.865Z,6.35
2019-03-06T11:54:09.594Z,7.28
2019-03-06T11:56:39.500Z,14.37
2019-03-06T11:59:08.866Z,7.83
2019-03-06T12:01:47.600Z,8.27
2019-03-06T12:04:10.317Z,6.57
2019-03-06T12:06:39.683Z,6.37
2019-03-06T12:09:27.995Z,5.60
2019-03-06T12:11:58.036Z,11.47
2019-03-06T12:14:27.951Z,14.60
2019-03-06T12:16:57.325Z,7.43
2019-03-06T12:19:27.270Z,5.13
2019-03-06T12:21:57.337Z,8.20
2019-03-06T12:24:26.753Z,5.60
2019-03-06T12:26:56.135Z,4.00
2019-03-06T12:29:25.492Z,4.93
2019-03-06T12:31:54.997Z,4.97
2019-03-06T12:34:24.375Z,10.53
2019-03-06T12:36:54.200Z,6.37
2019-03-06T12:39:23.764Z,3.98
2019-03-06T12:41:54.270Z,7.20
2019-03-06T12:44:23.670Z,4.83
2019-03-06T12:46:54.986Z,7.80
2019-03-06T12:49:26.337Z,5.63
2019-03-06T12:51:55.741Z,9.47
2019-03-06T12:54:25.182Z,4.53
2019-03-06T12:56:54.519Z,5.63
2019-03-06T12:59:23.879Z,6.33
2019-03-06T13:01:53.381Z,4.83
2019-03-06T13:04:22.733Z,7.67
2019-03-06T13:06:57.359Z,6.43
2019-03-06T13:09:26.784Z,4.10
2019-03-06T13:11:56.191Z,4.43
2019-03-06T13:14:25.737Z,6.67
2019-03-06T13:16:56.267Z,6.70
2019-03-06T13:19:25.621Z,5.50
2019-03-06T13:21:54.967Z,7.30
2019-03-06T13:24:24.355Z,4.53
2019-03-06T13:26:53.814Z,3.47
2019-03-06T13:29:23.141Z,7.03
2019-03-06T13:31:52.526Z,4.23
2019-03-06T13:34:35.337Z,4.90
2019-03-06T13:37:04.708Z,3.40
2019-03-06T13:39:34.431Z,6.23
2019-03-06T13:42:03.824Z,4.90
2019-03-06T13:44:33.325Z,3.20
2019-03-06T13:47:03.073Z,3.00
2019-03-06T13:49:32.462Z,6.90
2019-03-06T13:52:01.873Z,6.70
2019-03-06T13:54:31.318Z,4.50
2019-03-06T13:57:00.808Z,4.83
2019-03-06T13:59:30.182Z,5.70
2019-03-06T14:01:59.706Z,5.10
2019-03-06T14:04:30.893Z,5.77
2019-03-06T14:07:00.296Z,5.27
2019-03-06T14:09:30.003Z,6.80
2019-03-06T14:11:59.383Z,5.03
2019-03-06T14:14:28.830Z,6.67
2019-03-06T14:16:58.755Z,6.93
2019-03-06T14:19:28.348Z,3.27
2019-03-06T14:21:57.706Z,9.17
2019-03-06T14:24:27.208Z,5.87
2019-03-06T14:26:56.591Z,3.43
2019-03-06T14:29:26.016Z,5.73
2019-03-06T14:31:55.422Z,10.43
2019-03-06T14:34:24.845Z,3.97
2019-03-06T14:36:54.634Z,4.67
2019-03-06T14:39:26.571Z,4.47
2019-03-06T14:41:56.385Z,5.07
2019-03-06T14:44:25.763Z,7.83
2019-03-06T14:46:55.194Z,5.17
2019-03-06T14:49:24.676Z,7.13
2019-03-06T14:51:54.277Z,5.20
2019-03-06T14:54:23.988Z,5.13
2019-03-06T14:56:53.329Z,4.10
2019-03-06T14:59:24.735Z,4.67
2019-03-06T15:01:54.097Z,6.37
2019-03-06T15:04:24.055Z,5.37
2019-03-06T15:06:53.475Z,6.07
2019-03-06T15:09:27.397Z,12.20
2019-03-06T15:11:56.789Z,4.77
2019-03-06T15:14:35.487Z,3.47
2019-03-06T15:16:58.268Z,6.30
2019-03-06T15:19:27.609Z,7.63
2019-03-06T15:21:57.029Z,9.97
2019-03-06T15:24:26.519Z,9.53
2019-03-06T15:26:55.921Z,12.43
2019-03-06T15:29:25.297Z,14.80
2019-03-06T15:31:54.933Z,12.63
2019-03-06T15:34:24.693Z,21.17
2019-03-06T15:36:54.204Z,11.07
2019-03-06T15:39:42.624Z,16.43
2019-03-06T15:42:10.158Z,12.70
2019-03-06T15:44:39.631Z,9.13
2019-03-06T15:47:09.070Z,11.43
2019-03-06T15:49:38.476Z,13.40
2019-03-06T15:52:10.339Z,10.13
2019-03-06T15:54:39.769Z,10.10
2019-03-06T15:57:10.152Z,15.97
2019-03-06T15:59:39.888Z,12.63
2019-03-06T16:02:09.330Z,13.53
2019-03-06T16:04:38.886Z,14.53
2019-03-06T16:07:08.490Z,11.73
2019-03-06T16:09:38.876Z,17.17
2019-03-06T16:12:08.250Z,12.13
2019-03-06T16:14:37.612Z,12.33
2019-03-06T16:17:07.098Z,15.13
2019-03-06T16:19:36.518Z,17.27
2019-03-06T16:22:06.203Z,10.97
2019-03-06T16:24:37.511Z,17.70
2019-03-06T16:27:06.689Z,13.83
2019-03-06T16:29:36.097Z,11.63
2019-03-06T16:32:05.554Z,14.00
2019-03-06T16:34:34.924Z,16.17
2019-03-06T16:37:04.568Z,13.23
2019-03-06T16:39:33.941Z,14.53
2019-03-06T16:42:03.392Z,14.57
2019-03-06T16:44:32.824Z,13.37
2019-03-06T16:47:06.728Z,15.47
2019-03-06T16:49:34.155Z,15.23
2019-03-06T16:52:03.663Z,14.63
2019-03-06T16:54:33.119Z,13.23
2019-03-06T16:57:02.533Z,15.00
2019-03-06T16:59:31.940Z,15.47
2019-03-06T17:02:01.842Z,14.37
2019-03-06T17:04:31.512Z,19.00
2019-03-06T17:07:01.359Z,19.37
2019-03-06T17:09:30.765Z,24.73
2019-03-06T17:12:00.519Z,20.43
2019-03-06T17:14:30.375Z,25.60
2019-03-06T17:16:59.754Z,22.03
2019-03-06T17:19:29.118Z,19.87
2019-03-06T17:21:58.505Z,20.57
2019-03-06T17:24:30.190Z,26.20
2019-03-06T17:26:59.701Z,23.73
2019-03-06T17:29:29.397Z,26.67
2019-03-06T17:31:59.510Z,25.77
2019-03-06T17:34:28.853Z,28.10
2019-03-06T17:36:58.232Z,25.07
2019-03-06T17:39:27.647Z,18.90
2019-03-06T17:41:57.124Z,16.87
2019-03-06T17:44:26.506Z,18.20
2019-03-06T17:46:56.107Z,26.03
2019-03-06T17:49:25.434Z,34.57
2019-03-06T17:51:54.800Z,36.17
2019-03-06T17:54:24.220Z,24.97
2019-03-06T17:56:53.630Z,23.67
2019-03-06T17:59:23.246Z,26.33
2019-03-06T18:01:53.558Z,35.73
2019-03-06T18:04:24.381Z,25.17
2019-03-06T18:06:53.859Z,25.70
2019-03-06T18:09:23.230Z,28.23
2019-03-06T18:11:52.673Z,25.13
2019-03-06T18:14:22.323Z,22.63
2019-03-06T18:16:51.804Z,25.67
2019-03-06T18:19:21.247Z,24.07
2019-03-06T18:21:50.694Z,23.77
2019-03-06T18:24:20.164Z,18.17
2019-03-06T18:26:49.554Z,22.13
2019-03-06T18:29:19.139Z,25.50
2019-03-06T18:31:48.578Z,26.33
2019-03-06T18:34:18.098Z,52.97
2019-03-06T18:36:47.952Z,23.40
2019-03-06T18:39:18.590Z,26.17
2019-03-06T18:41:48.482Z,24.63
2019-03-06T18:44:18.644Z,29.23
2019-03-06T18:46:48.136Z,27.27
2019-03-06T18:49:20.001Z,23.37
2019-03-06T18:51:49.416Z,27.07
2019-03-06T18:54:18.941Z,36.50
2019-03-06T18:56:48.686Z,25.97
2019-03-06T18:59:18.145Z,28.00
2019-03-06T19:01:47.610Z,27.77
2019-03-06T19:04:17.005Z,26.47
2019-03-06T19:06:46.843Z,29.30
2019-03-06T19:09:19.832Z,31.57
2019-03-06T19:11:49.244Z,27.23
2019-03-06T19:14:18.878Z,29.47
2019-03-06T19:16:51.248Z,29.20
2019-03-06T19:19:20.674Z,30.63
2019-03-06T19:21:50.184Z,36.67
2019-03-06T19:24:19.627Z,45.37
2019-03-06T19:26:49.011Z,37.87
2019-03-06T19:29:18.400Z,79.53
2019-03-06T19:31:47.775Z,78.67
2019-03-06T19:34:19.469Z,114.07
2019-03-06T19:36:48.880Z,133.20
2019-03-06T19:39:18.605Z,131.13
2019-03-06T19:41:48.017Z,126.10
2019-03-06T19:44:17.352Z,124.67
2019-03-06T19:46:46.841Z,129.23
2019-03-06T19:49:16.484Z,131.10
2019-03-06T19:51:51.426Z,143.03
2019-03-06T19:54:17.404Z,111.37
2019-03-06T19:56:47.088Z,104.37
2019-03-06T19:59:16.463Z,85.67
2019-03-06T20:01:45.863Z,80.53
2019-03-06T20:04:15.198Z,71.20
2019-03-06T20:06:44.601Z,58.07
2019-03-06T20:09:27.926Z,51.30
2019-03-06T20:11:57.456Z,38.47
2019-03-06T20:14:27.085Z,43.80
2019-03-06T20:16:56.657Z,45.90
2019-03-06T20:19:26.221Z,50.10
2019-03-06T20:21:55.609Z,51.97
2019-03-06T20:24:24.990Z,36.70
2019-03-06T20:26:54.490Z,43.93
2019-03-06T20:29:23.859Z,54.60
2019-03-06T20:31:53.246Z,69.47
2019-03-06T20:34:22.635Z,71.47
2019-03-06T20:36:53.268Z,75.10
2019-03-06T20:39:22.745Z,60.67
2019-03-06T20:41:52.551Z,70.07
2019-03-06T20:44:22.484Z,72.57
2019-03-06T20:46:53.638Z,74.63
2019-03-06T20:49:23.014Z,65.43
2019-03-06T20:51:52.833Z,72.03
2019-03-06T20:54:22.256Z,88.30
2019-03-06T20:56:51.654Z,84.00
2019-03-06T20:59:21.027Z,96.17
2019-03-06T21:01:50.462Z,102.37
2019-03-06T21:04:20.261Z,90.83
2019-03-06T21:06:50.028Z,82.73
2019-03-06T21:09:19.421Z,81.73
2019-03-06T21:11:48.973Z,79.90
2019-03-06T21:14:18.404Z,100.87
2019-03-06T21:16:47.870Z,92.73
2019-03-06T21:19:17.237Z,94.23
2019-03-06T21:21:46.595Z,98.33
2019-03-06T21:24:15.936Z,94.23
2019-03-06T21:26:45.453Z,87.80
2019-03-06T21:29:14.951Z,84.17
2019-03-06T21:31:44.307Z,72.03
2019-03-06T21:34:13.715Z,70.07
2019-03-06T21:36:44.883Z,94.77
2019-03-06T21:39:26.679Z,98.40
2019-03-06T21:41:56.039Z,85.97
2019-03-06T21:44:25.449Z,77.53
2019-03-06T21:46:54.860Z,71.10
2019-03-06T21:49:24.236Z,67.03
2019-03-06T21:51:53.599Z,74.77
2019-03-06T21:54:23.157Z,70.07
2019-03-06T21:56:52.500Z,73.47
2019-03-06T21:59:21.872Z,68.37
2019-03-06T22:01:51.227Z,68.93
2019-03-06T22:04:20.653Z,79.37
2019-03-06T22:06:50.061Z,78.07
2019-03-06T22:09:30.447Z,73.27
2019-03-06T22:11:59.835Z,74.10
2019-03-06T22:14:29.204Z,74.73
2019-03-06T22:17:01.320Z,72.77
2019-03-06T22:19:31.621Z,82.93
2019-03-06T22:22:01.400Z,83.37
2019-03-06T22:24:30.764Z,72.83
2019-03-06T22:27:00.114Z,72.90
2019-03-06T22:29:29.449Z,51.17
2019-03-06T22:31:58.867Z,55.83
2019-03-06T22:34:28.428Z,78.97
2019-03-06T22:36:57.795Z,83.43
2019-03-06T22:39:27.144Z,78.23
2019-03-06T22:41:56.480Z,85.67
2019-03-06T22:44:25.831Z,96.17
2019-03-06T22:46:55.262Z,106.43
2019-03-06T22:49:24.824Z,83.63
2019-03-06T22:51:54.252Z,81.90
2019-03-06T22:54:23.663Z,91.30
2019-03-06T22:56:53.063Z,74.77
2019-03-06T22:59:22.597Z,76.33
2019-03-06T23:01:53.358Z,79.47
2019-03-06T23:04:22.802Z,78.50
2019-03-06T23:06:52.238Z,76.50
2019-03-06T23:09:21.689Z,74.07
2019-03-06T23:11:51.210Z,87.10
2019-03-06T23:14:20.976Z,80.07
2019-03-06T23:16:50.903Z,79.37
2019-03-06T23:19:20.645Z,84.63
2019-03-06T23:21:50.047Z,76.07
2019-03-06T23:24:19.498Z,68.10
2019-03-06T23:26:48.946Z,69.03
2019-03-06T23:29:18.357Z,67.40
2019-03-06T23:31:50.498Z,74.13
2019-03-06T23:34:20.210Z,66.00
2019-03-06T23:36:52.640Z,77.40
2019-03-06T23:39:22.608Z,78.83
2019-03-06T23:41:52.214Z,75.00
2019-03-06T23:44:21.609Z,66.53
2019-03-06T23:46:50.953Z,68.83
2019-03-06T23:49:20.311Z,68.13
2019-03-06T23:51:52.695Z,71.93
2019-03-06T23:54:22.089Z,64.60
2019-03-06T23:56:51.635Z,62.87
2019-03-06T23:59:20.974Z,79.57
